Jamshedpur, India
Current Conditions -  °F | °C
As of 9:20 PM on Sunday 23 Nov 2014 (Local Time) from VECC Reporting Station
Haze Haze  
Wind Chill: 66°   Ceiling: Unl
Heat Index: 66°   Visibility: 0.93mi
Dew Point: 59°   Wind: 0mph
Humidity: 78%   Direction: NA
Pressure: 29.91"   Gusts: NA
Location:  22.78°N, 86.21°E
Report Text: VECC 231620Z 00000KT 1500 BR NSC 19/15 Q1013 NOSIG
Loading
Personal Weather Stations






























Interactive Weather Map New forecast layout! Learn more

10-Day Weather Forecast

Advertisements
Track Severe Weather on mobile